sensor_id;sensor_type;location;lat;lon;timestamp;temperature;humidity
20070;DHT22;10195;50.868;4.382;2022-11-12T00:00:36;9.90;99.90
20070;DHT22;10195;50.868;4.382;2022-11-12T00:03:02;9.90;99.90
20070;DHT22;10195;50.868;4.382;2022-11-12T00:05:28;9.90;99.90
20070;DHT22;10195;50.868;4.382;2022-11-12T00:07:53;9.80;99.90
20070;DHT22;10195;50.868;4.382;2022-11-12T00:10:19;9.80;99.90
20070;DHT22;10195;50.868;4.382;2022-11-12T00:12:45;9.80;99.90
20070;DHT22;10195;50.868;4.382;2022-11-12T00:15:11;9.80;99.90
20070;DHT22;10195;50.868;4.382;2022-11-12T00:17:37;9.80;99.90
20070;DHT22;10195;50.868;4.382;2022-11-12T00:20:03;9.70;99.90
20070;DHT22;10195;50.868;4.382;2022-11-12T00:22:29;9.70;99.90
20070;DHT22;10195;50.868;4.382;2022-11-12T00:24:54;9.80;99.90
20070;DHT22;10195;50.868;4.382;2022-11-12T00:27:20;9.70;99.90
20070;DHT22;10195;50.868;4.382;2022-11-12T00:29:46;9.70;99.90
20070;DHT22;10195;50.868;4.382;2022-11-12T00:32:11;9.70;99.90
20070;DHT22;10195;50.868;4.382;2022-11-12T00:34:37;9.70;99.90
20070;DHT22;10195;50.868;4.382;2022-11-12T00:37:03;9.60;99.90
20070;DHT22;10195;50.868;4.382;2022-11-12T00:39:29;9.60;99.90
20070;DHT22;10195;50.868;4.382;2022-11-12T00:41:55;9.60;99.90
20070;DHT22;10195;50.868;4.382;2022-11-12T00:44:21;9.60;99.90
20070;DHT22;10195;50.868;4.382;2022-11-12T00:46:47;9.60;99.90
20070;DHT22;10195;50.868;4.382;2022-11-12T00:49:13;9.60;99.90
20070;DHT22;10195;50.868;4.382;2022-11-12T00:51:38;9.60;99.90
20070;DHT22;10195;50.868;4.382;2022-11-12T00:54:04;9.60;99.90
20070;DHT22;10195;50.868;4.382;2022-11-12T00:56:30;9.60;99.90
20070;DHT22;10195;50.868;4.382;2022-11-12T00:58:57;9.60;99.90
20070;DHT22;10195;50.868;4.382;2022-11-12T01:01:23;9.60;99.90
20070;DHT22;10195;50.868;4.382;2022-11-12T01:03:49;9.50;99.90
20070;DHT22;10195;50.868;4.382;2022-11-12T01:06:18;9.50;99.90
20070;DHT22;10195;50.868;4.382;2022-11-12T01:08:44;9.50;99.90
20070;DHT22;10195;50.868;4.382;2022-11-12T01:11:28;9.50;99.90
20070;DHT22;10195;50.868;4.382;2022-11-12T01:14:06;9.50;99.90
20070;DHT22;10195;50.868;4.382;2022-11-12T01:16:37;9.50;99.90
20070;DHT22;10195;50.868;4.382;2022-11-12T01:19:04;9.50;99.90
20070;DHT22;10195;50.868;4.382;2022-11-12T01:21:32;9.40;99.90
20070;DHT22;10195;50.868;4.382;2022-11-12T01:23:59;9.40;99.90
20070;DHT22;10195;50.868;4.382;2022-11-12T01:26:26;9.40;99.90
20070;DHT22;10195;50.868;4.382;2022-11-12T01:28:55;9.40;99.90
20070;DHT22;10195;50.868;4.382;2022-11-12T01:31:27;9.40;99.90
20070;DHT22;10195;50.868;4.382;2022-11-12T01:33:59;9.40;99.90
20070;DHT22;10195;50.868;4.382;2022-11-12T01:36:26;9.30;99.90
20070;DHT22;10195;50.868;4.382;2022-11-12T01:38:53;9.30;99.90
20070;DHT22;10195;50.868;4.382;2022-11-12T01:41:25;9.30;99.90
20070;DHT22;10195;50.868;4.382;2022-11-12T01:44:24;9.30;99.90
20070;DHT22;10195;50.868;4.382;2022-11-12T01:49:45;9.30;99.90
20070;DHT22;10195;50.868;4.382;2022-11-12T01:54:37;9.30;99.90
20070;DHT22;10195;50.868;4.382;2022-11-12T01:57:03;9.20;99.90
20070;DHT22;10195;50.868;4.382;2022-11-12T01:59:34;9.20;99.90
20070;DHT22;10195;50.868;4.382;2022-11-12T02:02:02;9.20;99.90
20070;DHT22;10195;50.868;4.382;2022-11-12T02:04:28;9.30;99.90
20070;DHT22;10195;50.868;4.382;2022-11-12T02:06:55;9.30;99.90
20070;DHT22;10195;50.868;4.382;2022-11-12T02:09:21;9.20;99.90
20070;DHT22;10195;50.868;4.382;2022-11-12T02:11:47;9.20;99.90
20070;DHT22;10195;50.868;4.382;2022-11-12T02:14:13;9.10;99.90
20070;DHT22;10195;50.868;4.382;2022-11-12T02:16:41;9.20;99.90
20070;DHT22;10195;50.868;4.382;2022-11-12T02:19:11;9.10;99.90
20070;DHT22;10195;50.868;4.382;2022-11-12T02:21:37;9.10;99.90
20070;DHT22;10195;50.868;4.382;2022-11-12T02:26:34;9.20;99.90
20070;DHT22;10195;50.868;4.382;2022-11-12T02:29:01;9.10;99.90
20070;DHT22;10195;50.868;4.382;2022-11-12T02:31:27;9.00;99.90
20070;DHT22;10195;50.868;4.382;2022-11-12T02:33:53;9.10;99.90
20070;DHT22;10195;50.868;4.382;2022-11-12T02:36:18;9.00;99.90
20070;DHT22;10195;50.868;4.382;2022-11-12T02:38:44;8.90;99.90
20070;DHT22;10195;50.868;4.382;2022-11-12T02:41:10;8.90;99.90
20070;DHT22;10195;50.868;4.382;2022-11-12T02:43:35;9.00;99.90
20070;DHT22;10195;50.868;4.382;2022-11-12T02:46:01;8.90;99.90
20070;DHT22;10195;50.868;4.382;2022-11-12T02:48:27;8.90;99.90
20070;DHT22;10195;50.868;4.382;2022-11-12T02:50:52;9.00;99.90
20070;DHT22;10195;50.868;4.382;2022-11-12T02:53:18;8.90;99.90
20070;DHT22;10195;50.868;4.382;2022-11-12T02:55:43;8.90;99.90
20070;DHT22;10195;50.868;4.382;2022-11-12T02:58:09;8.80;99.90
20070;DHT22;10195;50.868;4.382;2022-11-12T03:00:35;8.80;99.90
20070;DHT22;10195;50.868;4.382;2022-11-12T03:03:00;8.80;99.90
20070;DHT22;10195;50.868;4.382;2022-11-12T03:05:32;8.90;99.90
20070;DHT22;10195;50.868;4.382;2022-11-12T03:08:00;8.90;99.90
20070;DHT22;10195;50.868;4.382;2022-11-12T03:10:26;8.90;99.90
20070;DHT22;10195;50.868;4.382;2022-11-12T03:12:54;8.90;99.90
20070;DHT22;10195;50.868;4.382;2022-11-12T03:15:20;8.80;99.90
20070;DHT22;10195;50.868;4.382;2022-11-12T03:17:46;8.80;99.90
20070;DHT22;10195;50.868;4.382;2022-11-12T03:20:12;8.80;99.90
20070;DHT22;10195;50.868;4.382;2022-11-12T03:22:38;8.80;99.90
20070;DHT22;10195;50.868;4.382;2022-11-12T03:25:05;8.70;99.90
20070;DHT22;10195;50.868;4.382;2022-11-12T03:27:30;8.50;99.90
20070;DHT22;10195;50.868;4.382;2022-11-12T03:29:56;8.50;99.90
20070;DHT22;10195;50.868;4.382;2022-11-12T03:32:22;8.50;99.90
20070;DHT22;10195;50.868;4.382;2022-11-12T03:34:48;8.50;99.90
20070;DHT22;10195;50.868;4.382;2022-11-12T03:37:13;8.50;99.90
20070;DHT22;10195;50.868;4.382;2022-11-12T03:39:41;8.60;99.90
20070;DHT22;10195;50.868;4.382;2022-11-12T03:42:08;8.60;99.90
20070;DHT22;10195;50.868;4.382;2022-11-12T03:44:34;8.60;99.90
20070;DHT22;10195;50.868;4.382;2022-11-12T03:46:59;8.60;99.90
20070;DHT22;10195;50.868;4.382;2022-11-12T03:49:25;8.50;99.90
20070;DHT22;10195;50.868;4.382;2022-11-12T03:51:50;8.50;99.90
20070;DHT22;10195;50.868;4.382;2022-11-12T03:54:16;8.50;99.90
20070;DHT22;10195;50.868;4.382;2022-11-12T03:56:42;8.60;99.90
20070;DHT22;10195;50.868;4.382;2022-11-12T03:59:07;8.60;99.90
20070;DHT22;10195;50.868;4.382;2022-11-12T04:01:33;8.60;99.90
20070;DHT22;10195;50.868;4.382;2022-11-12T04:03:59;8.50;99.90
20070;DHT22;10195;50.868;4.382;2022-11-12T04:06:24;8.60;99.90
20070;DHT22;10195;50.868;4.382;2022-11-12T04:09:09;8.60;99.90
20070;DHT22;10195;50.868;4.382;2022-11-12T04:11:34;8.60;99.90
20070;DHT22;10195;50.868;4.382;2022-11-12T04:14:00;8.60;99.90
20070;DHT22;10195;50.868;4.382;2022-11-12T04:16:25;8.60;99.90
20070;DHT22;10195;50.868;4.382;2022-11-12T04:19:11;8.50;99.90
20070;DHT22;10195;50.868;4.382;2022-11-12T04:22:13;8.50;99.90
20070;DHT22;10195;50.868;4.382;2022-11-12T04:24:41;8.50;99.90
20070;DHT22;10195;50.868;4.382;2022-11-12T04:27:31;8.50;99.90
20070;DHT22;10195;50.868;4.382;2022-11-12T04:29:57;8.40;99.90
20070;DHT22;10195;50.868;4.382;2022-11-12T04:32:51;8.30;99.90
20070;DHT22;10195;50.868;4.382;2022-11-12T04:35:19;8.30;99.90
20070;DHT22;10195;50.868;4.382;2022-11-12T04:37:45;8.40;99.90
20070;DHT22;10195;50.868;4.382;2022-11-12T04:40:19;8.40;99.90
20070;DHT22;10195;50.868;4.382;2022-11-12T04:43:05;8.50;99.90
20070;DHT22;10195;50.868;4.382;2022-11-12T04:45:51;8.50;99.90
20070;DHT22;10195;50.868;4.382;2022-11-12T04:48:18;8.50;99.90
20070;DHT22;10195;50.868;4.382;2022-11-12T04:50:49;8.50;99.90
20070;DHT22;10195;50.868;4.382;2022-11-12T04:53:15;8.50;99.90
20070;DHT22;10195;50.868;4.382;2022-11-12T04:55:40;8.50;99.90
20070;DHT22;10195;50.868;4.382;2022-11-12T04:58:06;8.50;99.90
20070;DHT22;10195;50.868;4.382;2022-11-12T05:00:32;8.50;99.90
20070;DHT22;10195;50.868;4.382;2022-11-12T05:02:57;8.50;99.90
20070;DHT22;10195;50.868;4.382;2022-11-12T05:05:23;8.40;99.90
20070;DHT22;10195;50.868;4.382;2022-11-12T05:07:49;8.40;99.90
20070;DHT22;10195;50.868;4.382;2022-11-12T05:10:14;8.40;99.90
20070;DHT22;10195;50.868;4.382;2022-11-12T05:12:40;8.40;99.90
20070;DHT22;10195;50.868;4.382;2022-11-12T05:15:07;8.40;99.90
20070;DHT22;10195;50.868;4.382;2022-11-12T05:17:33;8.40;99.90
20070;DHT22;10195;50.868;4.382;2022-11-12T05:19:58;8.40;99.90
20070;DHT22;10195;50.868;4.382;2022-11-12T05:22:24;8.40;99.90
20070;DHT22;10195;50.868;4.382;2022-11-12T05:24:50;8.30;99.90
20070;DHT22;10195;50.868;4.382;2022-11-12T05:27:18;8.30;99.90
20070;DHT22;10195;50.868;4.382;2022-11-12T05:29:44;8.30;99.90
20070;DHT22;10195;50.868;4.382;2022-11-12T05:32:12;8.30;99.90
20070;DHT22;10195;50.868;4.382;2022-11-12T05:34:38;8.40;99.90
20070;DHT22;10195;50.868;4.382;2022-11-12T05:37:05;8.20;99.90
20070;DHT22;10195;50.868;4.382;2022-11-12T05:39:31;8.30;99.90
20070;DHT22;10195;50.868;4.382;2022-11-12T05:41:57;8.20;99.90
20070;DHT22;10195;50.868;4.382;2022-11-12T05:44:22;8.20;99.90
20070;DHT22;10195;50.868;4.382;2022-11-12T05:46:48;8.00;99.90
20070;DHT22;10195;50.868;4.382;2022-11-12T05:49:15;7.90;99.90
20070;DHT22;10195;50.868;4.382;2022-11-12T05:51:41;7.90;99.90
20070;DHT22;10195;50.868;4.382;2022-11-12T05:54:07;8.00;99.90
20070;DHT22;10195;50.868;4.382;2022-11-12T05:56:32;8.10;99.90
20070;DHT22;10195;50.868;4.382;2022-11-12T05:58:59;8.10;99.90
20070;DHT22;10195;50.868;4.382;2022-11-12T06:01:25;8.10;99.90
20070;DHT22;10195;50.868;4.382;2022-11-12T06:03:50;8.10;99.90
20070;DHT22;10195;50.868;4.382;2022-11-12T06:06:16;8.10;99.90
20070;DHT22;10195;50.868;4.382;2022-11-12T06:08:42;8.20;99.90
20070;DHT22;10195;50.868;4.382;2022-11-12T06:11:07;8.10;99.90
20070;DHT22;10195;50.868;4.382;2022-11-12T06:13:33;8.00;99.90
20070;DHT22;10195;50.868;4.382;2022-11-12T06:15:59;8.00;99.90
20070;DHT22;10195;50.868;4.382;2022-11-12T06:18:24;8.00;99.90
20070;DHT22;10195;50.868;4.382;2022-11-12T06:20:50;8.10;99.90
20070;DHT22;10195;50.868;4.382;2022-11-12T06:23:35;8.20;99.90
20070;DHT22;10195;50.868;4.382;2022-11-12T06:26:01;8.00;99.90
20070;DHT22;10195;50.868;4.382;2022-11-12T06:28:27;8.10;99.90
20070;DHT22;10195;50.868;4.382;2022-11-12T06:30:53;8.10;99.90
20070;DHT22;10195;50.868;4.382;2022-11-12T06:33:18;8.00;99.90
20070;DHT22;10195;50.868;4.382;2022-11-12T06:35:44;8.10;99.90
20070;DHT22;10195;50.868;4.382;2022-11-12T06:38:09;8.10;99.90
20070;DHT22;10195;50.868;4.382;2022-11-12T06:40:35;8.10;99.90
20070;DHT22;10195;50.868;4.382;2022-11-12T06:43:01;8.00;99.90
20070;DHT22;10195;50.868;4.382;2022-11-12T06:45:26;8.00;99.90
20070;DHT22;10195;50.868;4.382;2022-11-12T06:47:57;8.00;99.90
20070;DHT22;10195;50.868;4.382;2022-11-12T06:50:22;8.10;99.90
20070;DHT22;10195;50.868;4.382;2022-11-12T06:52:48;8.00;99.90
20070;DHT22;10195;50.868;4.382;2022-11-12T06:55:16;8.00;99.90
20070;DHT22;10195;50.868;4.382;2022-11-12T06:57:42;8.00;99.90
20070;DHT22;10195;50.868;4.382;2022-11-12T07:00:08;8.00;99.90
20070;DHT22;10195;50.868;4.382;2022-11-12T07:02:36;8.00;99.90
20070;DHT22;10195;50.868;4.382;2022-11-12T07:05:01;8.00;99.90
20070;DHT22;10195;50.868;4.382;2022-11-12T07:07:28;8.10;99.90
20070;DHT22;10195;50.868;4.382;2022-11-12T07:09:53;8.10;99.90
20070;DHT22;10195;50.868;4.382;2022-11-12T07:12:19;8.10;99.90
20070;DHT22;10195;50.868;4.382;2022-11-12T07:14:44;8.10;99.90
20070;DHT22;10195;50.868;4.382;2022-11-12T07:17:10;8.10;99.90
20070;DHT22;10195;50.868;4.382;2022-11-12T07:19:36;8.10;99.90
20070;DHT22;10195;50.868;4.382;2022-11-12T07:22:02;8.00;99.90
20070;DHT22;10195;50.868;4.382;2022-11-12T07:24:27;7.90;99.90
20070;DHT22;10195;50.868;4.382;2022-11-12T07:26:53;7.90;99.90
20070;DHT22;10195;50.868;4.382;2022-11-12T07:29:18;8.00;99.90
20070;DHT22;10195;50.868;4.382;2022-11-12T07:31:44;8.10;99.90
20070;DHT22;10195;50.868;4.382;2022-11-12T07:34:10;8.10;99.90
20070;DHT22;10195;50.868;4.382;2022-11-12T07:36:35;8.20;99.90
20070;DHT22;10195;50.868;4.382;2022-11-12T07:39:01;8.30;99.90
20070;DHT22;10195;50.868;4.382;2022-11-12T07:41:26;8.30;99.90
20070;DHT22;10195;50.868;4.382;2022-11-12T07:43:53;8.40;99.90
20070;DHT22;10195;50.868;4.382;2022-11-12T07:46:23;8.40;99.90
20070;DHT22;10195;50.868;4.382;2022-11-12T07:48:49;8.50;99.90
20070;DHT22;10195;50.868;4.382;2022-11-12T07:51:20;8.50;99.90
20070;DHT22;10195;50.868;4.382;2022-11-12T07:53:46;8.60;99.90
20070;DHT22;10195;50.868;4.382;2022-11-12T07:56:18;8.50;99.90
20070;DHT22;10195;50.868;4.382;2022-11-12T07:58:44;8.60;99.90
20070;DHT22;10195;50.868;4.382;2022-11-12T08:03:50;8.80;99.90
20070;DHT22;10195;50.868;4.382;2022-11-12T08:06:16;8.80;99.90
20070;DHT22;10195;50.868;4.382;2022-11-12T08:08:42;8.90;99.90
20070;DHT22;10195;50.868;4.382;2022-11-12T08:11:07;8.90;99.90
20070;DHT22;10195;50.868;4.382;2022-11-12T08:13:33;9.00;99.90
20070;DHT22;10195;50.868;4.382;2022-11-12T08:15:59;9.00;99.90
20070;DHT22;10195;50.868;4.382;2022-11-12T08:18:25;9.00;99.90
20070;DHT22;10195;50.868;4.382;2022-11-12T08:20:51;9.20;99.90
20070;DHT22;10195;50.868;4.382;2022-11-12T08:23:17;9.30;99.90
20070;DHT22;10195;50.868;4.382;2022-11-12T08:25:42;9.40;99.90
20070;DHT22;10195;50.868;4.382;2022-11-12T08:28:08;9.50;99.90
20070;DHT22;10195;50.868;4.382;2022-11-12T08:30:34;9.70;99.90
20070;DHT22;10195;50.868;4.382;2022-11-12T08:33:04;9.80;99.90
20070;DHT22;10195;50.868;4.382;2022-11-12T08:35:32;10.00;99.90
20070;DHT22;10195;50.868;4.382;2022-11-12T08:38:03;10.30;99.90
20070;DHT22;10195;50.868;4.382;2022-11-12T08:40:31;10.60;99.90
20070;DHT22;10195;50.868;4.382;2022-11-12T08:43:04;11.10;99.90
20070;DHT22;10195;50.868;4.382;2022-11-12T08:45:35;11.60;99.90
20070;DHT22;10195;50.868;4.382;2022-11-12T08:48:02;11.80;99.90
20070;DHT22;10195;50.868;4.382;2022-11-12T08:50:29;12.10;99.90
20070;DHT22;10195;50.868;4.382;2022-11-12T08:53:07;12.40;99.90
20070;DHT22;10195;50.868;4.382;2022-11-12T08:55:34;12.80;99.90
20070;DHT22;10195;50.868;4.382;2022-11-12T08:58:00;13.20;99.90
20070;DHT22;10195;50.868;4.382;2022-11-12T09:00:31;13.80;99.90
20070;DHT22;10195;50.868;4.382;2022-11-12T09:03:06;14.80;99.90
20070;DHT22;10195;50.868;4.382;2022-11-12T09:05:33;15.90;99.90
20070;DHT22;10195;50.868;4.382;2022-11-12T09:08:01;16.80;99.90
20070;DHT22;10195;50.868;4.382;2022-11-12T09:10:27;17.70;99.90
20070;DHT22;10195;50.868;4.382;2022-11-12T09:12:53;18.40;99.90
20070;DHT22;10195;50.868;4.382;2022-11-12T09:15:20;18.90;99.90
20070;DHT22;10195;50.868;4.382;2022-11-12T09:17:46;19.10;99.90
20070;DHT22;10195;50.868;4.382;2022-11-12T09:20:11;19.50;99.90
20070;DHT22;10195;50.868;4.382;2022-11-12T09:22:37;20.00;99.90
20070;DHT22;10195;50.868;4.382;2022-11-12T09:25:03;20.30;99.90
20070;DHT22;10195;50.868;4.382;2022-11-12T09:27:29;20.20;99.90
20070;DHT22;10195;50.868;4.382;2022-11-12T09:29:55;20.20;99.90
20070;DHT22;10195;50.868;4.382;2022-11-12T09:32:20;20.40;99.90
20070;DHT22;10195;50.868;4.382;2022-11-12T09:34:46;20.30;99.90
20070;DHT22;10195;50.868;4.382;2022-11-12T09:37:12;20.60;99.90
20070;DHT22;10195;50.868;4.382;2022-11-12T09:39:37;21.00;99.90
20070;DHT22;10195;50.868;4.382;2022-11-12T09:42:08;21.20;99.90
20070;DHT22;10195;50.868;4.382;2022-11-12T09:44:36;21.50;99.90
20070;DHT22;10195;50.868;4.382;2022-11-12T09:47:13;21.10;99.90
20070;DHT22;10195;50.868;4.382;2022-11-12T09:50:00;20.20;99.90
20070;DHT22;10195;50.868;4.382;2022-11-12T09:52:29;19.10;99.90
20070;DHT22;10195;50.868;4.382;2022-11-12T09:57:52;18.20;99.90
20070;DHT22;10195;50.868;4.382;2022-11-12T10:00:19;16.00;99.90
20070;DHT22;10195;50.868;4.382;2022-11-12T10:02:56;15.10;99.90
20070;DHT22;10195;50.868;4.382;2022-11-12T10:08:08;14.30;99.90
20070;DHT22;10195;50.868;4.382;2022-11-12T10:10:53;14.90;99.90
20070;DHT22;10195;50.868;4.382;2022-11-12T10:13:50;15.00;99.90
20070;DHT22;10195;50.868;4.382;2022-11-12T10:19:26;15.80;99.90
20070;DHT22;10195;50.868;4.382;2022-11-12T10:24:34;16.40;99.90
20070;DHT22;10195;50.868;4.382;2022-11-12T10:27:18;16.40;99.90
20070;DHT22;10195;50.868;4.382;2022-11-12T10:30:03;16.70;99.90
20070;DHT22;10195;50.868;4.382;2022-11-12T10:32:30;16.80;99.90
20070;DHT22;10195;50.868;4.382;2022-11-12T10:34:55;17.00;99.90
20070;DHT22;10195;50.868;4.382;2022-11-12T10:45:22;19.30;99.90
20070;DHT22;10195;50.868;4.382;2022-11-12T10:47:48;19.80;99.90
20070;DHT22;10195;50.868;4.382;2022-11-12T10:53:02;20.50;99.90
20070;DHT22;10195;50.868;4.382;2022-11-12T10:55:33;20.50;99.90
20070;DHT22;10195;50.868;4.382;2022-11-12T11:00:31;21.10;99.90
20070;DHT22;10195;50.868;4.382;2022-11-12T11:03:01;20.90;99.90
20070;DHT22;10195;50.868;4.382;2022-11-12T11:05:32;20.70;99.90
20070;DHT22;10195;50.868;4.382;2022-11-12T11:07:58;20.30;99.90
20070;DHT22;10195;50.868;4.382;2022-11-12T11:15:33;19.30;99.90
20070;DHT22;10195;50.868;4.382;2022-11-12T11:17:59;19.20;99.90
20070;DHT22;10195;50.868;4.382;2022-11-12T11:20:29;19.30;99.90
20070;DHT22;10195;50.868;4.382;2022-11-12T11:23:01;19.30;99.90
20070;DHT22;10195;50.868;4.382;2022-11-12T11:25:28;19.10;99.90
20070;DHT22;10195;50.868;4.382;2022-11-12T11:28:46;18.90;99.90
20070;DHT22;10195;50.868;4.382;2022-11-12T11:31:01;18.90;99.90
20070;DHT22;10195;50.868;4.382;2022-11-12T11:33:40;18.80;99.90
20070;DHT22;10195;50.868;4.382;2022-11-12T11:41:59;18.50;99.90
20070;DHT22;10195;50.868;4.382;2022-11-12T11:44:56;18.00;99.90
20070;DHT22;10195;50.868;4.382;2022-11-12T11:50:16;17.70;99.90
20070;DHT22;10195;50.868;4.382;2022-11-12T11:52:47;17.80;99.90
20070;DHT22;10195;50.868;4.382;2022-11-12T11:55:43;17.90;99.90
20070;DHT22;10195;50.868;4.382;2022-11-12T11:58:42;18.00;99.90
20070;DHT22;10195;50.868;4.382;2022-11-12T12:06:59;18.00;99.90
20070;DHT22;10195;50.868;4.382;2022-11-12T12:16:12;18.00;99.90
20070;DHT22;10195;50.868;4.382;2022-11-12T12:18:51;17.90;99.90
20070;DHT22;10195;50.868;4.382;2022-11-12T12:21:19;18.00;99.90
20070;DHT22;10195;50.868;4.382;2022-11-12T12:23:57;17.90;99.90
20070;DHT22;10195;50.868;4.382;2022-11-12T12:26:39;17.80;99.90
20070;DHT22;10195;50.868;4.382;2022-11-12T12:29:16;17.90;99.90
20070;DHT22;10195;50.868;4.382;2022-11-12T12:31:51;17.90;99.90
20070;DHT22;10195;50.868;4.382;2022-11-12T12:34:42;17.90;99.90
20070;DHT22;10195;50.868;4.382;2022-11-12T12:37:36;17.90;99.90
20070;DHT22;10195;50.868;4.382;2022-11-12T12:40:22;17.90;99.90
20070;DHT22;10195;50.868;4.382;2022-11-12T12:42:58;17.90;99.90
20070;DHT22;10195;50.868;4.382;2022-11-12T12:45:45;17.90;99.90
20070;DHT22;10195;50.868;4.382;2022-11-12T12:48:26;17.80;99.90
20070;DHT22;10195;50.868;4.382;2022-11-12T12:50:53;17.60;99.90
20070;DHT22;10195;50.868;4.382;2022-11-12T12:55:49;17.50;99.90
20070;DHT22;10195;50.868;4.382;2022-11-12T12:58:31;17.60;99.90
20070;DHT22;10195;50.868;4.382;2022-11-12T13:04:24;17.60;99.90
20070;DHT22;10195;50.868;4.382;2022-11-12T13:17:09;17.50;99.90
20070;DHT22;10195;50.868;4.382;2022-11-12T13:19:37;17.50;99.90
20070;DHT22;10195;50.868;4.382;2022-11-12T13:42:48;17.90;99.90
20070;DHT22;10195;50.868;4.382;2022-11-12T13:45:15;17.90;99.90
20070;DHT22;10195;50.868;4.382;2022-11-12T13:47:42;18.00;99.90
20070;DHT22;10195;50.868;4.382;2022-11-12T13:50:13;18.00;99.90
20070;DHT22;10195;50.868;4.382;2022-11-12T13:52:41;18.00;99.90
20070;DHT22;10195;50.868;4.382;2022-11-12T13:55:15;17.90;99.90
20070;DHT22;10195;50.868;4.382;2022-11-12T13:57:48;17.80;99.90
20070;DHT22;10195;50.868;4.382;2022-11-12T14:03:06;17.80;99.90
20070;DHT22;10195;50.868;4.382;2022-11-12T14:05:33;17.90;99.90
20070;DHT22;10195;50.868;4.382;2022-11-12T14:16:14;17.90;99.90
20070;DHT22;10195;50.868;4.382;2022-11-12T14:18:54;17.90;99.90
20070;DHT22;10195;50.868;4.382;2022-11-12T14:21:22;17.90;99.90
20070;DHT22;10195;50.868;4.382;2022-11-12T14:23:48;18.00;99.90
20070;DHT22;10195;50.868;4.382;2022-11-12T14:26:33;17.90;99.90
20070;DHT22;10195;50.868;4.382;2022-11-12T14:29:00;17.80;99.90
20070;DHT22;10195;50.868;4.382;2022-11-12T14:31:25;17.80;99.90
20070;DHT22;10195;50.868;4.382;2022-11-12T14:33:51;17.80;99.90
20070;DHT22;10195;50.868;4.382;2022-11-12T14:36:17;17.80;99.90
20070;DHT22;10195;50.868;4.382;2022-11-12T14:38:50;17.80;99.90
20070;DHT22;10195;50.868;4.382;2022-11-12T14:41:49;17.70;99.90
20070;DHT22;10195;50.868;4.382;2022-11-12T14:44:35;17.70;99.90
20070;DHT22;10195;50.868;4.382;2022-11-12T14:47:02;17.70;99.90
20070;DHT22;10195;50.868;4.382;2022-11-12T14:49:38;17.60;99.90
20070;DHT22;10195;50.868;4.382;2022-11-12T14:52:30;17.50;99.90
20070;DHT22;10195;50.868;4.382;2022-11-12T14:55:25;17.40;99.90
20070;DHT22;10195;50.868;4.382;2022-11-12T14:57:48;17.30;99.90
20070;DHT22;10195;50.868;4.382;2022-11-12T15:00:21;17.30;99.90
20070;DHT22;10195;50.868;4.382;2022-11-12T15:03:00;17.30;99.90
20070;DHT22;10195;50.868;4.382;2022-11-12T15:05:27;17.30;99.90
20070;DHT22;10195;50.868;4.382;2022-11-12T15:08:01;17.40;99.90
20070;DHT22;10195;50.868;4.382;2022-11-12T15:10:35;17.40;99.90
20070;DHT22;10195;50.868;4.382;2022-11-12T15:13:06;17.40;99.90
20070;DHT22;10195;50.868;4.382;2022-11-12T15:15:34;17.30;99.90
20070;DHT22;10195;50.868;4.382;2022-11-12T15:18:11;17.10;99.90
20070;DHT22;10195;50.868;4.382;2022-11-12T15:20:38;17.10;99.90
20070;DHT22;10195;50.868;4.382;2022-11-12T15:23:05;17.10;99.90
20070;DHT22;10195;50.868;4.382;2022-11-12T15:25:31;17.00;99.90
20070;DHT22;10195;50.868;4.382;2022-11-12T15:28:23;17.00;99.90
20070;DHT22;10195;50.868;4.382;2022-11-12T15:31:19;16.90;99.90
20070;DHT22;10195;50.868;4.382;2022-11-12T15:33:45;16.90;99.90
20070;DHT22;10195;50.868;4.382;2022-11-12T15:36:19;16.80;99.90
20070;DHT22;10195;50.868;4.382;2022-11-12T15:38:51;16.90;99.90
20070;DHT22;10195;50.868;4.382;2022-11-12T15:41:21;16.80;99.90
20070;DHT22;10195;50.868;4.382;2022-11-12T15:43:48;16.70;99.90
20070;DHT22;10195;50.868;4.382;2022-11-12T15:46:13;16.60;99.90
20070;DHT22;10195;50.868;4.382;2022-11-12T15:48:39;16.50;99.90
20070;DHT22;10195;50.868;4.382;2022-11-12T15:51:08;16.40;99.90
20070;DHT22;10195;50.868;4.382;2022-11-12T15:53:34;16.20;99.90
20070;DHT22;10195;50.868;4.382;2022-11-12T15:56:00;16.20;99.90
20070;DHT22;10195;50.868;4.382;2022-11-12T15:58:33;16.10;99.90
20070;DHT22;10195;50.868;4.382;2022-11-12T16:00:59;16.00;99.90
20070;DHT22;10195;50.868;4.382;2022-11-12T16:03:25;16.00;99.90
20070;DHT22;10195;50.868;4.382;2022-11-12T16:05:51;15.80;99.90
20070;DHT22;10195;50.868;4.382;2022-11-12T16:08:18;15.70;99.90
20070;DHT22;10195;50.868;4.382;2022-11-12T16:10:45;15.60;99.90
20070;DHT22;10195;50.868;4.382;2022-11-12T16:13:18;15.40;99.90
20070;DHT22;10195;50.868;4.382;2022-11-12T16:15:45;15.60;99.90
20070;DHT22;10195;50.868;4.382;2022-11-12T16:18:10;15.50;99.90
20070;DHT22;10195;50.868;4.382;2022-11-12T16:20:37;15.40;99.90
20070;DHT22;10195;50.868;4.382;2022-11-12T16:23:05;15.40;99.90
20070;DHT22;10195;50.868;4.382;2022-11-12T16:25:33;15.30;99.90
20070;DHT22;10195;50.868;4.382;2022-11-12T16:28:00;15.20;99.90
20070;DHT22;10195;50.868;4.382;2022-11-12T16:30:31;15.20;99.90
20070;DHT22;10195;50.868;4.382;2022-11-12T16:32:58;15.20;99.90
20070;DHT22;10195;50.868;4.382;2022-11-12T16:35:24;15.00;99.90
20070;DHT22;10195;50.868;4.382;2022-11-12T16:37:53;14.90;99.90
20070;DHT22;10195;50.868;4.382;2022-11-12T16:40:29;14.80;99.90
20070;DHT22;10195;50.868;4.382;2022-11-12T16:42:55;14.80;99.90
20070;DHT22;10195;50.868;4.382;2022-11-12T16:45:22;14.70;99.90
20070;DHT22;10195;50.868;4.382;2022-11-12T16:47:53;14.70;99.90
20070;DHT22;10195;50.868;4.382;2022-11-12T16:50:23;14.70;99.90
20070;DHT22;10195;50.868;4.382;2022-11-12T16:52:49;14.60;99.90
20070;DHT22;10195;50.868;4.382;2022-11-12T16:55:15;14.40;99.90
20070;DHT22;10195;50.868;4.382;2022-11-12T16:57:41;14.40;99.90
20070;DHT22;10195;50.868;4.382;2022-11-12T17:00:13;14.40;99.90
20070;DHT22;10195;50.868;4.382;2022-11-12T17:02:39;14.40;99.90
20070;DHT22;10195;50.868;4.382;2022-11-12T17:05:27;14.30;99.90
20070;DHT22;10195;50.868;4.382;2022-11-12T17:07:56;14.20;99.90
20070;DHT22;10195;50.868;4.382;2022-11-12T17:10:22;14.20;99.90
20070;DHT22;10195;50.868;4.382;2022-11-12T17:12:49;14.10;99.90
20070;DHT22;10195;50.868;4.382;2022-11-12T17:15:15;14.10;99.90
20070;DHT22;10195;50.868;4.382;2022-11-12T17:17:41;14.00;99.90
20070;DHT22;10195;50.868;4.382;2022-11-12T17:20:07;14.00;99.90
20070;DHT22;10195;50.868;4.382;2022-11-12T17:22:33;14.00;99.90
20070;DHT22;10195;50.868;4.382;2022-11-12T17:25:00;13.90;99.90
20070;DHT22;10195;50.868;4.382;2022-11-12T17:27:25;13.80;99.90
20070;DHT22;10195;50.868;4.382;2022-11-12T17:29:51;13.70;99.90
20070;DHT22;10195;50.868;4.382;2022-11-12T17:32:17;13.80;99.90
20070;DHT22;10195;50.868;4.382;2022-11-12T17:34:43;13.70;99.90
20070;DHT22;10195;50.868;4.382;2022-11-12T17:37:08;13.70;99.90
20070;DHT22;10195;50.868;4.382;2022-11-12T17:39:34;13.70;99.90
20070;DHT22;10195;50.868;4.382;2022-11-12T17:41:59;13.60;99.90